createdAt,value
2022-08-01T00:00:16.241Z,13.666667
2022-08-01T00:05:18.411Z,14.000000
2022-08-01T00:10:21.366Z,11.333333
2022-08-01T00:15:23.880Z,10.000000
2022-08-01T00:20:26.462Z,13.000000
2022-08-01T00:25:33.462Z,15.000000
2022-08-01T00:30:32.373Z,12.333333
2022-08-01T00:35:34.991Z,11.000000
2022-08-01T00:40:17.798Z,13.000000
2022-08-01T00:45:20.701Z,14.000000
2022-08-01T00:50:24.712Z,14.000000
2022-08-01T00:55:25.826Z,14.000000
2022-08-01T01:00:28.181Z,12.200000
2022-08-01T01:05:33.579Z,11.000000
2022-08-01T01:10:33.586Z,11.000000
2022-08-01T01:15:16.328Z,11.000000
2022-08-01T01:20:18.834Z,11.000000
2022-08-01T01:25:21.401Z,11.000000
2022-08-01T01:30:24.674Z,12.928571
2022-08-01T01:35:27.472Z,14.000000
2022-08-01T01:40:30.105Z,12.000000
2022-08-01T01:45:32.637Z,11.000000
2022-08-01T01:50:35.316Z,11.000000
2022-08-01T01:55:17.803Z,11.000000
2022-08-01T02:00:20.137Z,9.000000
2022-08-01T02:05:22.936Z,8.000000
2022-08-01T02:10:28.395Z,13.400000
2022-08-01T02:15:28.547Z,17.000000
2022-08-01T02:20:31.133Z,15.000000
2022-08-01T02:25:33.670Z,14.000000
2022-08-01T02:30:16.539Z,18.666667
2022-08-01T02:35:19.343Z,21.000000
2022-08-01T02:40:21.818Z,17.000000
2022-08-01T02:45:24.536Z,15.000000
2022-08-01T02:50:26.906Z,14.400000
2022-08-01T02:55:29.432Z,14.000000
2022-08-01T03:00:32.086Z,16.666667
2022-08-01T03:05:35.341Z,18.000000
2022-08-01T03:10:18.776Z,15.333333
2022-08-01T03:15:20.169Z,14.000000
2022-08-01T03:20:23.341Z,24.285714
2022-08-01T03:25:26.252Z,30.000000
2022-08-01T03:30:28.689Z,28.000000
2022-08-01T03:35:31.408Z,27.000000
2022-08-01T03:40:33.624Z,19.666667
2022-08-01T03:45:16.175Z,16.000000
2022-08-01T03:50:18.603Z,14.000000
2022-08-01T03:55:21.582Z,13.000000
2022-08-01T04:00:24.397Z,13.000000
2022-08-01T04:05:26.832Z,13.000000
2022-08-01T04:10:29.301Z,15.000000
2022-08-01T04:15:31.899Z,16.000000
2022-08-01T04:20:35.583Z,14.666667
2022-08-01T04:25:18.021Z,14.000000
2022-08-01T04:30:21.000Z,14.666667
2022-08-01T04:36:02.243Z,15.000000
2022-08-01T04:40:26.270Z,15.000000
2022-08-01T04:45:29.356Z,15.000000
2022-08-01T04:50:32.272Z,12.333333
2022-08-01T04:55:35.133Z,11.000000
2022-08-01T05:00:17.195Z,12.333333
2022-08-01T05:05:20.174Z,13.000000
2022-08-01T05:10:22.983Z,11.714286
2022-08-01T05:15:25.556Z,11.000000
2022-08-01T05:20:27.904Z,9.800000
2022-08-01T05:25:56.395Z,9.000000
2022-08-01T05:30:32.604Z,14.333333
2022-08-01T05:35:48.579Z,17.000000
2022-08-01T05:40:18.097Z,16.333333
2022-08-01T05:45:20.753Z,16.000000
2022-08-01T05:50:23.121Z,17.928571
2022-08-01T05:55:25.653Z,19.000000
2022-08-01T06:00:28.237Z,16.000000
2022-08-01T06:05:31.253Z,14.000000
2022-08-01T06:10:33.932Z,14.000000
2022-08-01T06:15:16.046Z,14.000000
2022-08-01T06:20:18.566Z,11.333333
2022-08-01T06:25:21.688Z,10.000000
2022-08-01T06:30:24.227Z,16.428571
2022-08-01T06:35:27.263Z,20.000000
2022-08-01T06:40:29.864Z,18.000000
2022-08-01T06:45:32.431Z,17.000000
2022-08-01T06:50:34.743Z,15.666667
2022-08-01T06:55:16.943Z,15.000000
2022-08-01T07:00:19.371Z,13.666667
2022-08-01T07:05:21.681Z,13.000000
2022-08-01T07:10:23.841Z,30.357143
2022-08-01T07:15:26.083Z,40.000000
2022-08-01T07:20:28.968Z,26.666667
2022-08-01T07:25:31.641Z,20.000000
2022-08-01T07:30:33.797Z,22.666667
2022-08-01T07:35:16.298Z,24.000000
2022-08-01T07:40:18.940Z,20.666667
2022-08-01T07:45:21.813Z,19.000000
2022-08-01T07:50:24.671Z,18.357143
2022-08-01T07:55:27.640Z,18.000000
2022-08-01T08:00:30.539Z,16.666667
2022-08-01T08:05:58.556Z,16.000000
2022-08-01T08:10:34.790Z,16.000000
2022-08-01T08:15:17.217Z,16.000000
2022-08-01T08:20:19.909Z,15.333333
2022-08-01T08:25:22.494Z,15.000000
2022-08-01T08:30:24.892Z,14.400000
2022-08-01T08:35:40.468Z,14.000000
2022-08-01T08:40:29.894Z,18.000000
2022-08-01T08:45:50.297Z,20.000000
2022-08-01T08:50:36.198Z,16.666667
2022-08-01T08:55:17.978Z,15.000000
2022-08-01T09:00:20.465Z,13.000000
2022-08-01T09:05:23.326Z,12.000000
2022-08-01T09:10:26.178Z,15.000000
2022-08-01T09:15:28.443Z,17.000000
2022-08-01T09:20:31.479Z,17.000000
2022-08-01T09:25:36.794Z,17.000000
2022-08-01T09:30:17.090Z,21.000000
2022-08-01T09:35:19.309Z,23.000000
2022-08-01T09:40:22.002Z,23.000000
2022-08-01T09:45:24.701Z,23.000000
2022-08-01T09:50:26.893Z,24.800000
2022-08-01T09:55:29.674Z,26.000000
2022-08-01T10:00:44.864Z,18.000000
2022-08-01T10:05:37.161Z,14.000000
2022-08-01T10:10:18.107Z,17.333333
2022-08-01T10:15:20.140Z,19.000000
2022-08-01T10:20:29.877Z,15.785714
2022-08-01T10:25:42.803Z,14.000000
2022-08-01T10:30:28.181Z,16.400000
2022-08-01T10:35:46.818Z,18.000000
2022-08-01T10:40:33.704Z,17.333333
2022-08-01T10:45:16.260Z,17.000000
2022-08-01T10:50:21.757Z,17.666667
2022-08-01T10:55:21.891Z,18.000000
2022-08-01T11:00:25.296Z,16.714286
2022-08-01T11:05:26.714Z,16.000000
2022-08-01T11:10:29.423Z,17.333333
2022-08-01T11:15:31.820Z,18.000000
2022-08-01T11:20:34.401Z,14.000000
2022-08-01T11:25:16.268Z,12.000000
2022-08-01T11:30:18.444Z,12.000000
2022-08-01T11:35:21.067Z,12.000000
2022-08-01T11:40:24.896Z,16.500000
2022-08-01T11:45:26.300Z,19.000000
2022-08-01T11:50:28.786Z,19.000000
2022-08-01T11:55:31.721Z,19.000000
2022-08-01T12:00:33.715Z,17.666667
2022-08-01T12:05:16.779Z,17.000000
2022-08-01T12:10:19.686Z,13.666667
2022-08-01T12:15:22.535Z,12.000000
2022-08-01T12:20:25.652Z,11.400000
2022-08-01T12:25:28.667Z,11.000000
2022-08-01T12:30:31.245Z,13.666667
2022-08-01T12:35:34.075Z,15.000000
2022-08-01T12:40:16.070Z,14.333333
2022-08-01T12:45:18.460Z,14.000000
2022-08-01T12:50:21.083Z,14.000000
2022-08-01T12:55:23.930Z,14.000000
2022-08-01T13:00:26.282Z,17.600000
2022-08-01T13:05:29.061Z,20.000000
2022-08-01T13:10:32.157Z,15.333333
2022-08-01T13:15:34.559Z,13.000000
2022-08-01T13:20:17.201Z,14.333333
2022-08-01T13:25:22.660Z,15.000000
2022-08-01T13:30:21.694Z,19.000000
2022-08-01T13:35:24.070Z,21.000000
2022-08-01T13:40:26.153Z,19.200000
2022-08-01T13:45:28.980Z,18.000000
2022-08-01T13:50:31.508Z,18.000000
2022-08-01T13:55:35.263Z,18.000000
2022-08-01T14:00:16.221Z,18.666667
2022-08-01T14:05:18.702Z,19.000000
2022-08-01T14:10:20.930Z,15.666667
2022-08-01T14:15:37.759Z,14.000000
2022-08-01T14:20:25.408Z,17.000000
2022-08-01T14:26:05.492Z,19.000000
2022-08-01T14:30:30.568Z,15.666667
2022-08-01T14:36:03.470Z,14.000000
2022-08-01T14:40:35.369Z,14.666667
2022-08-01T14:45:17.306Z,15.000000
2022-08-01T14:50:19.631Z,13.666667
2022-08-01T14:55:22.517Z,13.000000
2022-08-01T15:00:25.467Z,16.000000
2022-08-01T15:05:27.572Z,18.000000
2022-08-01T15:10:29.662Z,13.333333
2022-08-01T15:15:32.308Z,11.000000
2022-08-01T15:20:34.294Z,12.333333
2022-08-01T15:25:16.454Z,13.000000
2022-08-01T15:30:23.681Z,13.666667
2022-08-01T15:35:21.317Z,14.000000
2022-08-01T15:40:24.429Z,15.285714
2022-08-01T15:45:46.372Z,16.000000
2022-08-01T15:50:29.123Z,13.333333
2022-08-01T15:55:31.559Z,12.000000
2022-08-01T16:00:38.748Z,15.333333
2022-08-01T16:05:17.097Z,17.000000
2022-08-01T16:10:18.703Z,15.666667
2022-08-01T16:15:21.574Z,15.000000
2022-08-01T16:20:24.276Z,13.714286
2022-08-01T16:25:26.646Z,13.000000
2022-08-01T16:30:29.626Z,11.666667
2022-08-01T16:35:35.946Z,11.000000
2022-08-01T16:40:46.461Z,13.000000
2022-08-01T16:45:16.753Z,14.000000
2022-08-01T16:50:19.246Z,13.333333
2022-08-01T16:55:22.318Z,13.000000
2022-08-01T17:00:24.824Z,14.200000
2022-08-01T17:05:27.372Z,15.000000
2022-08-01T17:10:29.818Z,15.666667
2022-08-01T17:15:36.199Z,16.000000
2022-08-01T17:20:35.044Z,12.666667
2022-08-01T17:25:17.400Z,11.000000
2022-08-01T17:30:20.934Z,11.000000
2022-08-01T17:35:22.034Z,11.000000
2022-08-01T17:40:39.511Z,9.714286
2022-08-01T17:45:27.858Z,9.000000
2022-08-01T17:50:28.278Z,12.333333
2022-08-01T17:55:55.217Z,14.000000
2022-08-01T18:00:32.589Z,10.666667
2022-08-01T18:05:37.077Z,9.000000
2022-08-01T18:10:16.842Z,8.333333
2022-08-01T18:15:22.235Z,8.000000
2022-08-01T18:20:21.635Z,9.333333
2022-08-01T18:25:24.127Z,10.000000
2022-08-01T18:30:26.602Z,10.600000
2022-08-01T18:35:52.506Z,11.000000
2022-08-01T18:40:31.973Z,10.333333
2022-08-01T18:45:34.190Z,10.000000
2022-08-01T18:50:16.369Z,9.333333
2022-08-01T18:55:18.787Z,9.000000
2022-08-01T19:00:22.521Z,9.642857
2022-08-01T19:05:25.036Z,10.000000
2022-08-01T19:10:27.444Z,10.600000
2022-08-01T19:15:30.046Z,11.000000
2022-08-01T19:20:32.942Z,7.000000
2022-08-01T19:25:55.235Z,5.000000
2022-08-01T19:30:18.200Z,8.333333
2022-08-01T19:35:20.642Z,10.000000
2022-08-01T19:40:26.087Z,11.285714
2022-08-01T19:45:25.554Z,12.000000
2022-08-01T19:50:28.099Z,10.000000
2022-08-01T19:55:30.512Z,9.000000
2022-08-01T20:00:32.648Z,8.333333
2022-08-01T20:05:35.462Z,8.000000
2022-08-01T20:10:17.835Z,8.000000
2022-08-01T20:15:20.146Z,8.000000
2022-08-01T20:20:22.836Z,8.000000
2022-08-01T20:25:25.188Z,8.000000
2022-08-01T20:30:27.515Z,8.000000
2022-08-01T20:35:51.133Z,8.000000
2022-08-01T20:40:32.481Z,8.000000
2022-08-01T20:45:35.270Z,8.000000
2022-08-01T20:50:26.944Z,8.000000
2022-08-01T20:55:19.802Z,8.000000
2022-08-01T21:00:22.700Z,8.642857
2022-08-01T21:05:25.476Z,9.000000
2022-08-01T21:10:28.160Z,8.400000
2022-08-01T21:15:30.641Z,8.000000
2022-08-01T21:20:32.987Z,10.000000
2022-08-01T21:25:35.636Z,11.000000
2022-08-01T21:30:18.402Z,10.333333
2022-08-01T21:35:22.233Z,10.000000
2022-08-01T21:40:25.521Z,8.714286
2022-08-01T21:45:28.428Z,8.000000
2022-08-01T21:50:31.112Z,10.666667
2022-08-01T21:55:35.112Z,12.000000
2022-08-01T22:00:21.043Z,12.000000
2022-08-01T22:05:18.924Z,12.000000
2022-08-01T22:10:20.919Z,10.666667
2022-08-01T22:15:23.343Z,10.000000
2022-08-01T22:20:26.103Z,9.400000
2022-08-01T22:25:28.412Z,9.000000
2022-08-01T22:30:30.805Z,7.666667
2022-08-01T22:35:33.467Z,7.000000
2022-08-01T22:40:36.126Z,9.666667
2022-08-01T22:45:17.962Z,11.000000
2022-08-01T22:50:34.329Z,9.666667
2022-08-01T22:55:23.347Z,9.000000
2022-08-01T23:00:25.634Z,9.600000
2022-08-01T23:05:28.097Z,10.000000
2022-08-01T23:10:30.709Z,8.666667
2022-08-01T23:15:33.608Z,8.000000
2022-08-01T23:20:16.048Z,9.333333
2022-08-01T23:25:18.619Z,10.000000
2022-08-01T23:30:20.704Z,8.666667
2022-08-01T23:35:23.172Z,8.000000
2022-08-01T23:40:26.264Z,8.600000
2022-08-01T23:45:28.753Z,9.000000
2022-08-01T23:50:31.424Z,11.000000
2022-08-01T23:55:37.887Z,12.000000
